createdAt,value
2018-05-07T00:01:16.855Z,18.30
2018-05-07T00:03:43.057Z,18.20
2018-05-07T00:06:09.288Z,18.20
2018-05-07T00:08:35.430Z,18.10
2018-05-07T00:11:01.651Z,18.00
2018-05-07T00:13:27.867Z,18.00
2018-05-07T00:15:54.040Z,18.00
2018-05-07T00:18:20.212Z,18.20
2018-05-07T00:20:46.383Z,17.90
2018-05-07T00:23:12.549Z,17.90
2018-05-07T00:25:38.716Z,17.80
2018-05-07T00:28:04.900Z,17.80
2018-05-07T00:30:38.732Z,17.70
2018-05-07T00:33:04.934Z,17.70
2018-05-07T00:35:31.855Z,17.60
2018-05-07T00:37:58.100Z,17.60
2018-05-07T00:40:24.299Z,17.60
2018-05-07T00:42:50.464Z,17.50
2018-05-07T00:45:17.393Z,17.40
2018-05-07T00:47:43.585Z,17.40
2018-05-07T00:50:09.759Z,17.40
2018-05-07T00:52:35.939Z,17.40
2018-05-07T00:55:14.372Z,17.30
2018-05-07T00:57:40.566Z,17.30
2018-05-07T01:00:06.768Z,17.30
2018-05-07T01:02:32.961Z,17.30
2018-05-07T01:04:59.140Z,17.20
2018-05-07T01:07:25.320Z,17.20
2018-05-07T01:09:52.255Z,17.10
2018-05-07T01:12:18.460Z,17.10
2018-05-07T01:14:44.651Z,17.10
2018-05-07T01:17:11.570Z,17.00
2018-05-07T01:19:37.755Z,17.00
2018-05-07T01:22:03.953Z,17.00
2018-05-07T01:24:30.856Z,16.90
2018-05-07T01:26:57.048Z,16.90
2018-05-07T01:29:23.213Z,16.90
2018-05-07T01:31:49.395Z,16.90
2018-05-07T01:34:15.575Z,16.80
2018-05-07T01:36:41.747Z,16.80
2018-05-07T01:39:07.984Z,16.80
2018-05-07T01:41:34.199Z,16.70
2018-05-07T01:44:00.457Z,16.70
2018-05-07T01:46:26.640Z,16.60
2018-05-07T01:48:53.722Z,16.60
2018-05-07T01:51:19.956Z,16.50
2018-05-07T01:53:46.155Z,16.50
2018-05-07T01:56:12.331Z,16.50
2018-05-07T01:58:38.523Z,16.40
2018-05-07T02:01:04.708Z,16.40
2018-05-07T02:03:31.653Z,16.30
2018-05-07T02:05:58.575Z,16.30
2018-05-07T02:08:24.757Z,16.20
2018-05-07T02:10:50.974Z,16.20
2018-05-07T02:13:17.895Z,16.10
2018-05-07T02:15:44.107Z,16.10
2018-05-07T02:18:10.345Z,16.00
2018-05-07T02:20:36.529Z,16.00
2018-05-07T02:23:02.729Z,15.90
2018-05-07T02:25:29.041Z,15.80
2018-05-07T02:27:55.972Z,15.70
2018-05-07T02:30:22.182Z,15.60
2018-05-07T02:32:48.376Z,15.60
2018-05-07T02:35:14.578Z,15.50
2018-05-07T02:37:41.514Z,15.40
2018-05-07T02:40:08.471Z,15.40
2018-05-07T02:42:34.672Z,15.40
2018-05-07T02:45:00.948Z,15.40
2018-05-07T02:47:27.168Z,15.30
2018-05-07T02:49:53.365Z,15.30
2018-05-07T02:52:19.591Z,15.30
2018-05-07T02:54:45.805Z,15.30
2018-05-07T02:57:12.020Z,15.20
2018-05-07T02:59:38.229Z,15.20
2018-05-07T03:02:04.433Z,15.20
2018-05-07T03:04:30.644Z,15.10
2018-05-07T03:06:57.591Z,15.00
2018-05-07T03:09:23.765Z,15.00
2018-05-07T03:11:49.945Z,15.00
2018-05-07T03:14:16.909Z,14.90
2018-05-07T03:16:43.109Z,14.90
2018-05-07T03:19:10.081Z,14.80
2018-05-07T03:21:36.290Z,14.80
2018-05-07T03:24:02.547Z,14.80
2018-05-07T03:26:28.755Z,14.80
2018-05-07T03:28:54.991Z,14.70
2018-05-07T03:31:21.160Z,14.70
2018-05-07T03:33:47.333Z,14.70
2018-05-07T03:36:14.283Z,14.60
2018-05-07T03:38:40.451Z,14.60
2018-05-07T03:41:06.632Z,14.60
2018-05-07T03:43:33.572Z,14.50
2018-05-07T03:46:00.508Z,14.50
2018-05-07T03:48:26.670Z,14.50
2018-05-07T03:50:52.868Z,14.50
2018-05-07T03:53:19.786Z,14.40
2018-05-07T03:55:46.036Z,14.40
2018-05-07T03:58:12.970Z,14.40
2018-05-07T04:00:39.930Z,14.40
2018-05-07T04:03:06.160Z,14.40
2018-05-07T04:05:33.993Z,14.40
2018-05-07T04:08:00.200Z,14.40
2018-05-07T04:10:26.397Z,14.40
2018-05-07T04:12:52.623Z,14.40
2018-05-07T04:15:18.812Z,14.30
2018-05-07T04:17:58.936Z,14.20
2018-05-07T04:20:37.545Z,14.20
2018-05-07T04:23:16.077Z,14.20
2018-05-07T04:25:42.300Z,14.20
2018-05-07T04:28:08.520Z,14.20
2018-05-07T04:30:34.737Z,14.10
2018-05-07T04:33:01.731Z,14.10
2018-05-07T04:35:27.954Z,14.10
2018-05-07T04:37:54.977Z,14.10
2018-05-07T04:40:21.172Z,14.00
2018-05-07T04:42:47.361Z,14.10
2018-05-07T04:45:14.355Z,14.00
2018-05-07T04:47:40.548Z,14.00
2018-05-07T04:50:07.456Z,14.10
2018-05-07T04:52:33.641Z,14.00
2018-05-07T04:54:59.827Z,14.10
2018-05-07T04:57:26.750Z,14.10
2018-05-07T04:59:52.954Z,14.10
2018-05-07T05:02:19.188Z,14.20
2018-05-07T05:04:45.391Z,14.20
2018-05-07T05:07:11.615Z,14.30
2018-05-07T05:09:38.548Z,14.40
2018-05-07T05:12:05.475Z,14.40
2018-05-07T05:14:31.675Z,14.40
2018-05-07T05:16:57.867Z,14.50
2018-05-07T05:19:24.057Z,14.60
2018-05-07T05:21:50.243Z,14.70
2018-05-07T05:24:16.434Z,14.80
2018-05-07T05:26:42.611Z,14.80
2018-05-07T05:29:08.782Z,14.90
2018-05-07T05:31:35.705Z,15.10
2018-05-07T05:34:01.956Z,15.00
2018-05-07T05:36:28.907Z,15.20
2018-05-07T05:38:55.853Z,15.30
2018-05-07T05:41:22.771Z,15.50
2018-05-07T05:43:49.031Z,15.40
2018-05-07T05:46:15.164Z,15.70
2018-05-07T05:48:42.228Z,16.00
2018-05-07T05:51:08.443Z,16.30
2018-05-07T05:53:34.631Z,16.70
2018-05-07T05:56:00.809Z,17.10
2018-05-07T05:58:26.989Z,17.60
2018-05-07T06:00:53.912Z,18.50
2018-05-07T06:03:20.127Z,18.40
2018-05-07T06:05:46.306Z,18.90
2018-05-07T06:08:13.300Z,19.70
2018-05-07T06:10:39.473Z,19.70
2018-05-07T06:13:06.443Z,20.50
2018-05-07T06:15:32.632Z,20.40
2018-05-07T06:17:59.579Z,21.20
2018-05-07T06:20:26.512Z,21.50
2018-05-07T06:22:53.500Z,21.80
2018-05-07T06:25:19.702Z,21.80
2018-05-07T06:27:46.646Z,22.40
2018-05-07T06:33:15.047Z,22.90
2018-05-07T06:35:42.012Z,23.10
2018-05-07T06:38:08.195Z,23.10
2018-05-07T06:40:34.391Z,23.30
2018-05-07T06:43:00.598Z,23.50
2018-05-07T06:45:26.779Z,23.70
2018-05-07T06:47:53.736Z,23.90
2018-05-07T06:50:20.683Z,24.00
2018-05-07T06:52:47.621Z,24.20
2018-05-07T06:55:14.596Z,24.20
2018-05-07T06:57:40.771Z,24.20
2018-05-07T07:00:07.000Z,24.40
2018-05-07T07:02:33.239Z,24.50
2018-05-07T07:04:59.404Z,24.50
2018-05-07T07:07:25.601Z,24.60
2018-05-07T07:09:51.764Z,24.60
2018-05-07T07:12:17.956Z,24.50
2018-05-07T07:14:44.900Z,24.50
2018-05-07T07:17:11.847Z,24.40
2018-05-07T07:19:38.821Z,24.30
2018-05-07T07:22:05.030Z,24.30
2018-05-07T07:24:31.434Z,24.20
2018-05-07T07:26:57.657Z,24.10
2018-05-07T07:29:23.846Z,24.00
2018-05-07T07:31:50.063Z,23.90
2018-05-07T07:34:16.255Z,23.80
2018-05-07T07:36:42.444Z,23.70
2018-05-07T20:10:10.662Z,23.40
2018-05-07T20:12:36.900Z,23.40
2018-05-07T20:15:03.070Z,23.30
2018-05-07T20:17:30.020Z,23.10
2018-05-07T20:19:57.013Z,23.00
2018-05-07T20:22:23.875Z,22.90
2018-05-07T20:24:50.082Z,22.90
2018-05-07T20:27:16.296Z,22.80
2018-05-07T20:29:42.490Z,22.80
2018-05-07T20:32:09.433Z,22.60
2018-05-07T20:34:35.618Z,22.60
2018-05-07T20:37:01.815Z,22.60
2018-05-07T20:39:28.015Z,22.50
2018-05-07T20:41:54.944Z,22.40
2018-05-07T20:44:21.127Z,22.30
2018-05-07T20:46:47.328Z,22.30
2018-05-07T20:49:14.279Z,22.10
2018-05-07T20:51:40.461Z,22.10
2018-05-07T20:54:06.647Z,22.00
2018-05-07T20:56:32.865Z,22.00
2018-05-07T20:58:59.117Z,21.90
2018-05-07T21:01:25.394Z,21.80
2018-05-07T21:03:51.548Z,21.80
2018-05-07T21:06:17.760Z,21.70
2018-05-07T21:08:44.718Z,21.50
2018-05-07T21:11:11.637Z,21.50
2018-05-07T21:13:37.821Z,21.40
2018-05-07T21:16:04.023Z,21.40
2018-05-07T21:18:30.240Z,21.40
2018-05-07T21:20:56.427Z,21.30
2018-05-07T21:23:22.612Z,21.20
2018-05-07T21:25:48.837Z,21.10
2018-05-07T21:28:15.070Z,21.10
2018-05-07T21:30:41.283Z,21.10
2018-05-07T21:33:07.497Z,21.00
2018-05-07T21:35:34.431Z,21.00
2018-05-07T21:38:01.379Z,20.90
2018-05-07T21:40:28.323Z,20.90
2018-05-07T21:42:55.249Z,20.90
2018-05-07T21:45:21.460Z,20.90
2018-05-07T21:47:47.724Z,20.90
2018-05-07T21:50:13.838Z,20.80
2018-05-07T21:52:40.088Z,20.80
2018-05-07T21:55:06.260Z,20.80
2018-05-07T21:57:32.464Z,20.80
2018-05-07T21:59:58.701Z,20.80
2018-05-07T22:02:24.895Z,20.70
2018-05-07T22:04:51.141Z,20.70
2018-05-07T22:07:17.379Z,20.70
2018-05-07T22:09:43.559Z,20.70
2018-05-07T22:12:09.754Z,20.60
2018-05-07T22:14:35.930Z,20.60
2018-05-07T22:17:02.867Z,20.50
2018-05-07T22:19:29.784Z,20.50
2018-05-07T22:21:55.969Z,20.50
2018-05-07T22:24:22.160Z,20.50
2018-05-07T22:26:48.303Z,20.50
2018-05-07T22:29:15.328Z,20.40
2018-05-07T22:31:42.283Z,20.40
2018-05-07T22:34:09.213Z,20.40
2018-05-07T22:36:35.388Z,20.30
2018-05-07T22:39:01.626Z,20.30
2018-05-07T22:41:27.779Z,20.30
2018-05-07T22:43:54.001Z,20.20
2018-05-07T22:46:20.324Z,20.20
2018-05-07T22:48:46.372Z,20.10
2018-05-07T22:51:12.563Z,20.10
2018-05-07T22:53:38.775Z,20.00
2018-05-07T22:56:04.959Z,20.00
2018-05-07T22:58:31.919Z,19.90
2018-05-07T23:00:58.864Z,19.80
2018-05-07T23:03:25.846Z,19.80
2018-05-07T23:05:52.039Z,19.80
2018-05-07T23:08:18.231Z,19.70
2018-05-07T23:10:44.441Z,19.70
2018-05-07T23:13:10.634Z,19.60
2018-05-07T23:15:36.835Z,19.60
2018-05-07T23:18:03.759Z,19.50
2018-05-07T23:20:29.955Z,19.50
2018-05-07T23:22:56.185Z,19.50
2018-05-07T23:25:22.367Z,19.40
2018-05-07T23:27:49.277Z,19.40
2018-05-07T23:30:16.943Z,19.40
2018-05-07T23:32:43.127Z,19.30
2018-05-07T23:35:09.303Z,19.30
2018-05-07T23:37:35.492Z,19.20
2018-05-07T23:40:01.699Z,19.20
2018-05-07T23:42:27.909Z,19.10
2018-05-07T23:44:54.083Z,19.10
2018-05-07T23:47:20.264Z,19.10
2018-05-07T23:49:47.183Z,19.00
2018-05-07T23:52:13.368Z,18.90
2018-05-07T23:54:39.548Z,19.00
2018-05-07T23:57:05.731Z,18.90
2018-05-07T23:59:31.900Z,18.90
